Terminal Aerodrome Forecast
Issued by NWS

Home | Current Version | Previous Version | Text Only | Print | Product List | Glossary On
Versions: 1 2 3 4 5 6 7 8 9 10 11 12 13 14 15 16 17
000
FTUS43 KEAX 150500
TAFMKC
TAF
KMKC 150520Z 1506/1606 14006KT P6SM BKN050
     FM151000 14005KT P6SM VCTS OVC035CB
     FM151300 21007KT P6SM BKN015
     FM151700 34009KT P6SM VCSH BKN025
     FM152200 03007KT P6SM SCT025=

USA.gov is the U.S. government's official web portal to all federal, state and local government web resources and services.